sensor_id;sensor_type;location;lat;lon;timestamp;P1;durP1;ratioP1;P2;durP2;ratioP2
2039;SDS011;1025;42.686;23.350;2023-04-24T00:01:31;5.43;;;4.90;;
2039;SDS011;1025;42.686;23.350;2023-04-24T00:04:56;5.43;;;4.30;;
2039;SDS011;1025;42.686;23.350;2023-04-24T00:08:22;6.17;;;4.27;;
2039;SDS011;1025;42.686;23.350;2023-04-24T00:11:47;5.07;;;4.63;;
2039;SDS011;1025;42.686;23.350;2023-04-24T00:15:14;4.13;;;3.67;;
2039;SDS011;1025;42.686;23.350;2023-04-24T00:18:39;4.67;;;4.17;;
2039;SDS011;1025;42.686;23.350;2023-04-24T00:22:04;5.97;;;4.53;;
2039;SDS011;1025;42.686;23.350;2023-04-24T00:25:30;5.17;;;4.67;;
2039;SDS011;1025;42.686;23.350;2023-04-24T00:28:55;4.53;;;4.13;;
2039;SDS011;1025;42.686;23.350;2023-04-24T00:32:22;5.47;;;5.00;;
2039;SDS011;1025;42.686;23.350;2023-04-24T00:35:47;6.53;;;4.70;;
2039;SDS011;1025;42.686;23.350;2023-04-24T00:39:14;4.80;;;4.30;;
2039;SDS011;1025;42.686;23.350;2023-04-24T00:42:39;5.70;;;4.80;;
2039;SDS011;1025;42.686;23.350;2023-04-24T00:46:05;4.77;;;4.37;;
2039;SDS011;1025;42.686;23.350;2023-04-24T00:49:32;8.77;;;5.80;;
2039;SDS011;1025;42.686;23.350;2023-04-24T00:52:58;5.47;;;4.97;;
2039;SDS011;1025;42.686;23.350;2023-04-24T00:56:23;5.17;;;4.77;;
2039;SDS011;1025;42.686;23.350;2023-04-24T00:59:49;4.73;;;4.43;;
2039;SDS011;1025;42.686;23.350;2023-04-24T01:03:18;5.93;;;5.33;;
2039;SDS011;1025;42.686;23.350;2023-04-24T01:06:45;6.00;;;4.83;;
2039;SDS011;1025;42.686;23.350;2023-04-24T01:10:13;5.10;;;4.43;;
2039;SDS011;1025;42.686;23.350;2023-04-24T01:13:38;4.57;;;4.27;;
2039;SDS011;1025;42.686;23.350;2023-04-24T01:17:04;5.00;;;4.60;;
2039;SDS011;1025;42.686;23.350;2023-04-24T01:20:30;5.20;;;4.70;;
2039;SDS011;1025;42.686;23.350;2023-04-24T01:23:58;4.57;;;4.27;;
2039;SDS011;1025;42.686;23.350;2023-04-24T01:27:23;5.43;;;5.03;;
2039;SDS011;1025;42.686;23.350;2023-04-24T01:30:49;5.20;;;4.70;;
2039;SDS011;1025;42.686;23.350;2023-04-24T01:34:14;4.73;;;4.43;;
2039;SDS011;1025;42.686;23.350;2023-04-24T01:37:40;5.50;;;5.00;;
2039;SDS011;1025;42.686;23.350;2023-04-24T01:41:07;5.63;;;5.13;;
2039;SDS011;1025;42.686;23.350;2023-04-24T01:44:33;6.97;;;5.20;;
2039;SDS011;1025;42.686;23.350;2023-04-24T01:47:58;5.50;;;5.00;;
2039;SDS011;1025;42.686;23.350;2023-04-24T01:51:25;5.40;;;5.00;;
2039;SDS011;1025;42.686;23.350;2023-04-24T01:54:52;6.10;;;4.80;;
2039;SDS011;1025;42.686;23.350;2023-04-24T01:58:19;6.67;;;5.90;;
2039;SDS011;1025;42.686;23.350;2023-04-24T02:01:46;6.87;;;5.60;;
2039;SDS011;1025;42.686;23.350;2023-04-24T02:05:12;7.00;;;6.17;;
2039;SDS011;1025;42.686;23.350;2023-04-24T02:08:37;10.27;;;7.17;;
2039;SDS011;1025;42.686;23.350;2023-04-24T02:12:02;21.40;;;7.60;;
2039;SDS011;1025;42.686;23.350;2023-04-24T02:15:29;6.70;;;6.10;;
2039;SDS011;1025;42.686;23.350;2023-04-24T02:18:58;8.20;;;6.23;;
2039;SDS011;1025;42.686;23.350;2023-04-24T02:22:23;6.63;;;6.10;;
2039;SDS011;1025;42.686;23.350;2023-04-24T02:25:48;12.50;;;7.60;;
2039;SDS011;1025;42.686;23.350;2023-04-24T02:29:13;7.30;;;6.70;;
2039;SDS011;1025;42.686;23.350;2023-04-24T02:32:40;14.17;;;8.00;;
2039;SDS011;1025;42.686;23.350;2023-04-24T02:36:06;7.10;;;6.40;;
2039;SDS011;1025;42.686;23.350;2023-04-24T02:39:31;9.77;;;6.30;;
2039;SDS011;1025;42.686;23.350;2023-04-24T02:42:56;6.70;;;6.10;;
2039;SDS011;1025;42.686;23.350;2023-04-24T02:46:21;10.13;;;8.50;;
2039;SDS011;1025;42.686;23.350;2023-04-24T02:49:48;9.43;;;6.70;;
2039;SDS011;1025;42.686;23.350;2023-04-24T02:53:13;7.87;;;7.10;;
2039;SDS011;1025;42.686;23.350;2023-04-24T02:56:39;7.60;;;5.40;;
2039;SDS011;1025;42.686;23.350;2023-04-24T03:00:05;7.77;;;7.07;;
2039;SDS011;1025;42.686;23.350;2023-04-24T03:03:30;9.30;;;6.43;;
2039;SDS011;1025;42.686;23.350;2023-04-24T03:06:57;7.90;;;7.20;;
2039;SDS011;1025;42.686;23.350;2023-04-24T03:10:22;7.43;;;6.83;;
2039;SDS011;1025;42.686;23.350;2023-04-24T03:13:48;10.43;;;7.83;;
2039;SDS011;1025;42.686;23.350;2023-04-24T03:17:13;7.67;;;6.83;;
2039;SDS011;1025;42.686;23.350;2023-04-24T03:20:45;9.03;;;6.77;;
2039;SDS011;1025;42.686;23.350;2023-04-24T03:24:12;11.40;;;8.80;;
2039;SDS011;1025;42.686;23.350;2023-04-24T03:27:37;7.93;;;7.20;;
2039;SDS011;1025;42.686;23.350;2023-04-24T03:30:16;8.63;;;7.70;;
2039;SDS011;1025;42.686;23.350;2023-04-24T03:32:51;12.23;;;7.90;;
2039;SDS011;1025;42.686;23.350;2023-04-24T03:35:25;10.93;;;9.13;;
2039;SDS011;1025;42.686;23.350;2023-04-24T03:37:56;20.70;;;9.60;;
2039;SDS011;1025;42.686;23.350;2023-04-24T03:41:00;12.23;;;8.13;;
2039;SDS011;1025;42.686;23.350;2023-04-24T03:44:25;14.63;;;9.83;;
2039;SDS011;1025;42.686;23.350;2023-04-24T03:47:36;15.57;;;10.00;;
2039;SDS011;1025;42.686;23.350;2023-04-24T03:50:03;10.43;;;9.23;;
2039;SDS011;1025;42.686;23.350;2023-04-24T03:53:27;10.80;;;9.73;;
2039;SDS011;1025;42.686;23.350;2023-04-24T03:56:51;11.43;;;9.23;;
2039;SDS011;1025;42.686;23.350;2023-04-24T04:00:15;12.23;;;9.23;;
2039;SDS011;1025;42.686;23.350;2023-04-24T04:03:35;16.40;;;9.90;;
2039;SDS011;1025;42.686;23.350;2023-04-24T04:06:13;14.57;;;8.03;;
2039;SDS011;1025;42.686;23.350;2023-04-24T04:09:38;13.03;;;9.20;;
2039;SDS011;1025;42.686;23.350;2023-04-24T04:13:05;8.47;;;7.40;;
2039;SDS011;1025;42.686;23.350;2023-04-24T04:16:29;13.43;;;7.77;;
2039;SDS011;1025;42.686;23.350;2023-04-24T04:19:54;6.40;;;4.30;;
2039;SDS011;1025;42.686;23.350;2023-04-24T04:23:17;8.53;;;5.80;;
2039;SDS011;1025;42.686;23.350;2023-04-24T04:26:43;4.50;;;4.10;;
2039;SDS011;1025;42.686;23.350;2023-04-24T04:30:10;7.67;;;6.30;;
2039;SDS011;1025;42.686;23.350;2023-04-24T04:33:30;7.93;;;5.70;;
2039;SDS011;1025;42.686;23.350;2023-04-24T04:36:42;4.73;;;4.33;;
2039;SDS011;1025;42.686;23.350;2023-04-24T04:40:06;9.03;;;5.60;;
2039;SDS011;1025;42.686;23.350;2023-04-24T04:43:32;11.50;;;9.20;;
2039;SDS011;1025;42.686;23.350;2023-04-24T04:46:58;4.03;;;3.83;;
2039;SDS011;1025;42.686;23.350;2023-04-24T04:50:25;6.13;;;5.63;;
2039;SDS011;1025;42.686;23.350;2023-04-24T04:53:51;6.53;;;4.93;;
2039;SDS011;1025;42.686;23.350;2023-04-24T04:57:16;6.53;;;5.93;;
2039;SDS011;1025;42.686;23.350;2023-04-24T05:00:41;7.03;;;6.43;;
2039;SDS011;1025;42.686;23.350;2023-04-24T05:03:53;16.37;;;8.63;;
2039;SDS011;1025;42.686;23.350;2023-04-24T05:07:12;11.77;;;6.47;;
2039;SDS011;1025;42.686;23.350;2023-04-24T05:09:38;6.50;;;5.57;;
2039;SDS011;1025;42.686;23.350;2023-04-24T05:12:38;13.33;;;8.03;;
2039;SDS011;1025;42.686;23.350;2023-04-24T05:15:22;7.67;;;6.97;;
2039;SDS011;1025;42.686;23.350;2023-04-24T05:17:51;12.73;;;7.27;;
2039;SDS011;1025;42.686;23.350;2023-04-24T05:21:18;11.53;;;6.70;;
2039;SDS011;1025;42.686;23.350;2023-04-24T05:24:43;8.23;;;6.50;;
2039;SDS011;1025;42.686;23.350;2023-04-24T05:28:09;9.93;;;8.90;;
2039;SDS011;1025;42.686;23.350;2023-04-24T05:31:35;10.17;;;7.50;;
2039;SDS011;1025;42.686;23.350;2023-04-24T05:34:28;14.27;;;8.57;;
2039;SDS011;1025;42.686;23.350;2023-04-24T05:37:02;9.27;;;8.53;;
2039;SDS011;1025;42.686;23.350;2023-04-24T05:39:35;12.67;;;8.87;;
2039;SDS011;1025;42.686;23.350;2023-04-24T05:42:03;18.00;;;11.00;;
2039;SDS011;1025;42.686;23.350;2023-04-24T05:44:44;9.40;;;7.30;;
2039;SDS011;1025;42.686;23.350;2023-04-24T05:48:02;9.23;;;8.27;;
2039;SDS011;1025;42.686;23.350;2023-04-24T05:50:29;8.40;;;7.20;;
2039;SDS011;1025;42.686;23.350;2023-04-24T05:53:43;15.83;;;9.50;;
2039;SDS011;1025;42.686;23.350;2023-04-24T05:56:51;10.50;;;9.23;;
2039;SDS011;1025;42.686;23.350;2023-04-24T05:59:50;10.40;;;8.90;;
2039;SDS011;1025;42.686;23.350;2023-04-24T06:03:11;11.87;;;8.00;;
2039;SDS011;1025;42.686;23.350;2023-04-24T06:06:36;17.40;;;12.50;;
2039;SDS011;1025;42.686;23.350;2023-04-24T06:09:10;17.70;;;13.70;;
2039;SDS011;1025;42.686;23.350;2023-04-24T06:15:56;12.80;;;8.47;;
2039;SDS011;1025;42.686;23.350;2023-04-24T06:18:26;12.93;;;9.40;;
2039;SDS011;1025;42.686;23.350;2023-04-24T06:21:40;9.43;;;8.53;;
2039;SDS011;1025;42.686;23.350;2023-04-24T06:25:07;11.00;;;8.80;;
2039;SDS011;1025;42.686;23.350;2023-04-24T06:28:32;9.30;;;7.90;;
2039;SDS011;1025;42.686;23.350;2023-04-24T06:31:59;11.00;;;9.80;;
2039;SDS011;1025;42.686;23.350;2023-04-24T06:35:08;13.93;;;9.20;;
2039;SDS011;1025;42.686;23.350;2023-04-24T06:38:33;12.20;;;9.90;;
2039;SDS011;1025;42.686;23.350;2023-04-24T06:42:00;11.40;;;8.50;;
2039;SDS011;1025;42.686;23.350;2023-04-24T06:45:16;12.63;;;8.93;;
2039;SDS011;1025;42.686;23.350;2023-04-24T06:48:41;10.30;;;9.50;;
2039;SDS011;1025;42.686;23.350;2023-04-24T06:52:08;17.90;;;10.30;;
2039;SDS011;1025;42.686;23.350;2023-04-24T06:55:36;12.17;;;9.00;;
2039;SDS011;1025;42.686;23.350;2023-04-24T06:59:02;8.97;;;7.90;;
2039;SDS011;1025;42.686;23.350;2023-04-24T07:02:30;14.20;;;10.40;;
2039;SDS011;1025;42.686;23.350;2023-04-24T07:05:55;19.87;;;10.70;;
2039;SDS011;1025;42.686;23.350;2023-04-24T07:09:22;10.70;;;8.70;;
2039;SDS011;1025;42.686;23.350;2023-04-24T07:12:48;16.80;;;10.20;;
2039;SDS011;1025;42.686;23.350;2023-04-24T07:16:15;15.90;;;14.50;;
2039;SDS011;1025;42.686;23.350;2023-04-24T07:19:40;10.70;;;9.60;;
2039;SDS011;1025;42.686;23.350;2023-04-24T07:23:05;11.23;;;9.07;;
2039;SDS011;1025;42.686;23.350;2023-04-24T07:26:34;13.20;;;10.80;;
2039;SDS011;1025;42.686;23.350;2023-04-24T07:30:00;12.67;;;9.67;;
2039;SDS011;1025;42.686;23.350;2023-04-24T07:33:26;11.40;;;9.50;;
2039;SDS011;1025;42.686;23.350;2023-04-24T07:36:52;10.00;;;8.30;;
2039;SDS011;1025;42.686;23.350;2023-04-24T07:40:17;16.63;;;10.07;;
2039;SDS011;1025;42.686;23.350;2023-04-24T07:43:42;9.03;;;8.10;;
2039;SDS011;1025;42.686;23.350;2023-04-24T07:47:08;10.90;;;5.63;;
2039;SDS011;1025;42.686;23.350;2023-04-24T07:50:35;13.93;;;7.93;;
2039;SDS011;1025;42.686;23.350;2023-04-24T07:54:03;8.10;;;7.30;;
2039;SDS011;1025;42.686;23.350;2023-04-24T07:57:28;11.03;;;7.30;;
2039;SDS011;1025;42.686;23.350;2023-04-24T08:00:47;8.47;;;7.00;;
2039;SDS011;1025;42.686;23.350;2023-04-24T08:03:16;9.80;;;6.67;;
2039;SDS011;1025;42.686;23.350;2023-04-24T08:06:44;11.63;;;7.57;;
2039;SDS011;1025;42.686;23.350;2023-04-24T08:10:11;7.67;;;6.90;;
2039;SDS011;1025;42.686;23.350;2023-04-24T08:13:36;8.20;;;7.43;;
2039;SDS011;1025;42.686;23.350;2023-04-24T08:17:01;6.53;;;5.50;;
2039;SDS011;1025;42.686;23.350;2023-04-24T08:19:34;5.80;;;5.37;;
2039;SDS011;1025;42.686;23.350;2023-04-24T08:23:01;5.27;;;4.87;;
2039;SDS011;1025;42.686;23.350;2023-04-24T08:26:30;5.33;;;4.90;;
2039;SDS011;1025;42.686;23.350;2023-04-24T08:29:56;6.20;;;5.60;;
2039;SDS011;1025;42.686;23.350;2023-04-24T08:33:22;11.03;;;6.17;;
2039;SDS011;1025;42.686;23.350;2023-04-24T08:36:48;6.27;;;5.67;;
2039;SDS011;1025;42.686;23.350;2023-04-24T08:40:09;7.97;;;5.03;;
2039;SDS011;1025;42.686;23.350;2023-04-24T08:43:40;5.37;;;4.97;;
2039;SDS011;1025;42.686;23.350;2023-04-24T08:47:07;6.73;;;5.77;;
2039;SDS011;1025;42.686;23.350;2023-04-24T08:50:33;5.93;;;5.40;;
2039;SDS011;1025;42.686;23.350;2023-04-24T08:53:59;6.97;;;6.27;;
2039;SDS011;1025;42.686;23.350;2023-04-24T08:57:13;21.83;;;12.87;;
2039;SDS011;1025;42.686;23.350;2023-04-24T09:00:39;4.93;;;4.60;;
2039;SDS011;1025;42.686;23.350;2023-04-24T09:04:07;6.20;;;5.03;;
2039;SDS011;1025;42.686;23.350;2023-04-24T09:07:33;7.50;;;5.33;;
2039;SDS011;1025;42.686;23.350;2023-04-24T09:10:02;8.53;;;5.57;;
2039;SDS011;1025;42.686;23.350;2023-04-24T09:13:28;8.07;;;4.77;;
2039;SDS011;1025;42.686;23.350;2023-04-24T09:16:56;5.97;;;4.77;;
2039;SDS011;1025;42.686;23.350;2023-04-24T09:20:21;5.63;;;4.97;;
2039;SDS011;1025;42.686;23.350;2023-04-24T09:22:48;4.70;;;4.30;;
2039;SDS011;1025;42.686;23.350;2023-04-24T09:25:20;10.37;;;5.43;;
2039;SDS011;1025;42.686;23.350;2023-04-24T09:27:47;5.10;;;4.70;;
2039;SDS011;1025;42.686;23.350;2023-04-24T09:30:15;5.60;;;4.30;;
2039;SDS011;1025;42.686;23.350;2023-04-24T09:32:50;7.27;;;5.30;;
2039;SDS011;1025;42.686;23.350;2023-04-24T09:35:41;9.70;;;5.90;;
2039;SDS011;1025;42.686;23.350;2023-04-24T09:38:15;4.80;;;4.40;;
2039;SDS011;1025;42.686;23.350;2023-04-24T09:40:44;5.07;;;4.43;;
2039;SDS011;1025;42.686;23.350;2023-04-24T09:44:11;4.83;;;4.50;;
2039;SDS011;1025;42.686;23.350;2023-04-24T09:46:55;6.17;;;5.57;;
2039;SDS011;1025;42.686;23.350;2023-04-24T09:49:27;4.70;;;4.30;;
2039;SDS011;1025;42.686;23.350;2023-04-24T09:52:04;4.53;;;4.10;;
2039;SDS011;1025;42.686;23.350;2023-04-24T09:54:37;5.37;;;4.40;;
2039;SDS011;1025;42.686;23.350;2023-04-24T09:57:06;6.20;;;4.33;;
2039;SDS011;1025;42.686;23.350;2023-04-24T09:59:47;5.20;;;4.80;;
2039;SDS011;1025;42.686;23.350;2023-04-24T10:02:20;4.97;;;4.53;;
2039;SDS011;1025;42.686;23.350;2023-04-24T10:04:53;6.17;;;5.17;;
2039;SDS011;1025;42.686;23.350;2023-04-24T10:07:21;6.97;;;5.00;;
2039;SDS011;1025;42.686;23.350;2023-04-24T10:09:48;5.93;;;5.03;;
2039;SDS011;1025;42.686;23.350;2023-04-24T10:12:16;8.40;;;4.10;;
2039;SDS011;1025;42.686;23.350;2023-04-24T10:14:42;5.50;;;5.00;;
2039;SDS011;1025;42.686;23.350;2023-04-24T10:17:12;5.20;;;4.70;;
2039;SDS011;1025;42.686;23.350;2023-04-24T10:19:57;4.43;;;4.10;;
2039;SDS011;1025;42.686;23.350;2023-04-24T10:22:36;4.30;;;4.00;;
2039;SDS011;1025;42.686;23.350;2023-04-24T10:25:24;5.30;;;4.23;;
2039;SDS011;1025;42.686;23.350;2023-04-24T10:28:27;6.33;;;4.73;;
2039;SDS011;1025;42.686;23.350;2023-04-24T10:31:13;4.60;;;4.20;;
2039;SDS011;1025;42.686;23.350;2023-04-24T10:34:02;4.30;;;4.00;;
2039;SDS011;1025;42.686;23.350;2023-04-24T10:36:42;4.67;;;4.10;;
2039;SDS011;1025;42.686;23.350;2023-04-24T10:40:07;5.80;;;4.87;;
2039;SDS011;1025;42.686;23.350;2023-04-24T10:43:34;6.87;;;5.73;;
2039;SDS011;1025;42.686;23.350;2023-04-24T10:47:02;5.67;;;5.10;;
2039;SDS011;1025;42.686;23.350;2023-04-24T10:50:28;4.70;;;4.20;;
2039;SDS011;1025;42.686;23.350;2023-04-24T10:54:21;8.17;;;4.97;;
2039;SDS011;1025;42.686;23.350;2023-04-24T10:58:16;4.77;;;4.13;;
2039;SDS011;1025;42.686;23.350;2023-04-24T11:01:52;4.90;;;4.13;;
2039;SDS011;1025;42.686;23.350;2023-04-24T11:05:19;14.23;;;5.57;;
2039;SDS011;1025;42.686;23.350;2023-04-24T11:08:58;8.73;;;4.50;;
2039;SDS011;1025;42.686;23.350;2023-04-24T11:12:26;5.43;;;4.47;;
2039;SDS011;1025;42.686;23.350;2023-04-24T11:19:53;9.23;;;5.60;;
2039;SDS011;1025;42.686;23.350;2023-04-24T11:23:27;6.70;;;5.93;;
2039;SDS011;1025;42.686;23.350;2023-04-24T11:26:56;12.23;;;7.67;;
2039;SDS011;1025;42.686;23.350;2023-04-24T11:30:29;9.10;;;5.30;;
2039;SDS011;1025;42.686;23.350;2023-04-24T11:33:56;12.63;;;6.03;;
2039;SDS011;1025;42.686;23.350;2023-04-24T11:37:22;12.90;;;7.90;;
2039;SDS011;1025;42.686;23.350;2023-04-24T11:40:49;5.90;;;5.40;;
2039;SDS011;1025;42.686;23.350;2023-04-24T11:44:14;6.37;;;5.30;;
2039;SDS011;1025;42.686;23.350;2023-04-24T11:47:42;12.60;;;7.33;;
2039;SDS011;1025;42.686;23.350;2023-04-24T11:51:11;6.23;;;3.57;;
2039;SDS011;1025;42.686;23.350;2023-04-24T11:54:37;4.47;;;4.17;;
2039;SDS011;1025;42.686;23.350;2023-04-24T11:58:05;3.70;;;3.50;;
2039;SDS011;1025;42.686;23.350;2023-04-24T12:01:42;4.80;;;4.40;;
2039;SDS011;1025;42.686;23.350;2023-04-24T12:05:07;5.47;;;4.07;;
2039;SDS011;1025;42.686;23.350;2023-04-24T12:08:33;6.03;;;4.20;;
2039;SDS011;1025;42.686;23.350;2023-04-24T12:12:09;4.20;;;3.70;;
2039;SDS011;1025;42.686;23.350;2023-04-24T12:15:39;16.00;;;6.90;;
2039;SDS011;1025;42.686;23.350;2023-04-24T12:19:04;7.53;;;3.77;;
2039;SDS011;1025;42.686;23.350;2023-04-24T12:22:42;6.53;;;5.03;;
2039;SDS011;1025;42.686;23.350;2023-04-24T12:26:09;10.63;;;5.50;;
2039;SDS011;1025;42.686;23.350;2023-04-24T12:29:52;10.40;;;5.03;;
2039;SDS011;1025;42.686;23.350;2023-04-24T12:33:17;5.23;;;4.50;;
2039;SDS011;1025;42.686;23.350;2023-04-24T12:36:43;3.40;;;3.20;;
2039;SDS011;1025;42.686;23.350;2023-04-24T12:40:09;3.10;;;2.90;;
2039;SDS011;1025;42.686;23.350;2023-04-24T12:43:36;4.73;;;4.30;;
2039;SDS011;1025;42.686;23.350;2023-04-24T12:50:48;2.93;;;2.73;;
2039;SDS011;1025;42.686;23.350;2023-04-24T12:54:14;3.70;;;3.50;;
2039;SDS011;1025;42.686;23.350;2023-04-24T12:57:39;5.17;;;4.30;;
2039;SDS011;1025;42.686;23.350;2023-04-24T13:01:04;5.53;;;3.93;;
2039;SDS011;1025;42.686;23.350;2023-04-24T13:04:31;4.13;;;3.83;;
2039;SDS011;1025;42.686;23.350;2023-04-24T13:07:56;6.67;;;4.23;;
2039;SDS011;1025;42.686;23.350;2023-04-24T13:11:23;3.80;;;3.60;;
2039;SDS011;1025;42.686;23.350;2023-04-24T13:14:49;4.73;;;4.33;;
2039;SDS011;1025;42.686;23.350;2023-04-24T13:18:14;4.40;;;4.00;;
2039;SDS011;1025;42.686;23.350;2023-04-24T13:21:41;4.17;;;3.80;;
2039;SDS011;1025;42.686;23.350;2023-04-24T13:25:07;5.77;;;4.10;;
2039;SDS011;1025;42.686;23.350;2023-04-24T13:28:32;4.17;;;3.87;;
2039;SDS011;1025;42.686;23.350;2023-04-24T13:31:58;4.30;;;3.87;;
2039;SDS011;1025;42.686;23.350;2023-04-24T13:35:23;5.93;;;4.00;;
2039;SDS011;1025;42.686;23.350;2023-04-24T13:38:50;4.00;;;3.60;;
2039;SDS011;1025;42.686;23.350;2023-04-24T13:42:15;4.60;;;3.37;;
2039;SDS011;1025;42.686;23.350;2023-04-24T13:45:41;3.43;;;3.13;;
2039;SDS011;1025;42.686;23.350;2023-04-24T13:49:06;3.90;;;3.60;;
2039;SDS011;1025;42.686;23.350;2023-04-24T13:52:32;4.63;;;4.30;;
2039;SDS011;1025;42.686;23.350;2023-04-24T13:56:02;4.13;;;3.93;;
2039;SDS011;1025;42.686;23.350;2023-04-24T13:59:27;4.40;;;4.10;;
2039;SDS011;1025;42.686;23.350;2023-04-24T14:02:53;4.30;;;3.90;;
2039;SDS011;1025;42.686;23.350;2023-04-24T14:06:19;4.80;;;3.73;;
2039;SDS011;1025;42.686;23.350;2023-04-24T14:09:44;4.50;;;4.03;;
2039;SDS011;1025;42.686;23.350;2023-04-24T14:13:11;6.50;;;5.00;;
2039;SDS011;1025;42.686;23.350;2023-04-24T14:16:36;3.80;;;3.60;;
2039;SDS011;1025;42.686;23.350;2023-04-24T14:20:02;4.23;;;3.83;;
2039;SDS011;1025;42.686;23.350;2023-04-24T14:23:27;4.00;;;3.70;;
2039;SDS011;1025;42.686;23.350;2023-04-24T14:26:52;4.00;;;3.70;;
2039;SDS011;1025;42.686;23.350;2023-04-24T14:30:19;4.10;;;3.63;;
2039;SDS011;1025;42.686;23.350;2023-04-24T14:33:44;2.47;;;2.37;;
2039;SDS011;1025;42.686;23.350;2023-04-24T14:37:10;5.10;;;3.30;;
2039;SDS011;1025;42.686;23.350;2023-04-24T14:40:35;4.50;;;4.20;;
2039;SDS011;1025;42.686;23.350;2023-04-24T14:44:02;3.30;;;3.10;;
2039;SDS011;1025;42.686;23.350;2023-04-24T14:47:29;4.23;;;3.33;;
2039;SDS011;1025;42.686;23.350;2023-04-24T14:50:54;3.80;;;3.50;;
2039;SDS011;1025;42.686;23.350;2023-04-24T14:54:19;3.13;;;2.80;;
2039;SDS011;1025;42.686;23.350;2023-04-24T14:57:45;3.30;;;3.10;;
2039;SDS011;1025;42.686;23.350;2023-04-24T15:01:10;3.10;;;2.90;;
2039;SDS011;1025;42.686;23.350;2023-04-24T15:04:37;4.33;;;3.67;;
2039;SDS011;1025;42.686;23.350;2023-04-24T15:08:02;4.13;;;3.70;;
2039;SDS011;1025;42.686;23.350;2023-04-24T15:11:28;8.27;;;4.37;;
2039;SDS011;1025;42.686;23.350;2023-04-24T15:14:53;4.50;;;4.10;;
2039;SDS011;1025;42.686;23.350;2023-04-24T15:18:19;7.23;;;4.63;;
2039;SDS011;1025;42.686;23.350;2023-04-24T15:21:45;4.70;;;4.30;;
2039;SDS011;1025;42.686;23.350;2023-04-24T15:25:11;5.00;;;4.60;;
2039;SDS011;1025;42.686;23.350;2023-04-24T15:28:36;12.33;;;5.70;;
2039;SDS011;1025;42.686;23.350;2023-04-24T15:32:01;8.20;;;4.90;;
2039;SDS011;1025;42.686;23.350;2023-04-24T15:35:27;5.73;;;5.17;;
2039;SDS011;1025;42.686;23.350;2023-04-24T15:38:54;6.23;;;5.40;;
2039;SDS011;1025;42.686;23.350;2023-04-24T15:42:19;5.70;;;5.30;;
2039;SDS011;1025;42.686;23.350;2023-04-24T15:45:44;4.83;;;4.53;;
2039;SDS011;1025;42.686;23.350;2023-04-24T15:49:10;5.70;;;5.20;;
2039;SDS011;1025;42.686;23.350;2023-04-24T15:52:35;6.03;;;5.63;;
2039;SDS011;1025;42.686;23.350;2023-04-24T15:56:02;9.07;;;5.93;;
2039;SDS011;1025;42.686;23.350;2023-04-24T15:59:28;6.00;;;5.57;;
2039;SDS011;1025;42.686;23.350;2023-04-24T16:02:58;8.13;;;6.90;;
2039;SDS011;1025;42.686;23.350;2023-04-24T16:06:30;8.43;;;7.63;;
2039;SDS011;1025;42.686;23.350;2023-04-24T16:09:56;7.70;;;6.90;;
2039;SDS011;1025;42.686;23.350;2023-04-24T16:13:23;9.03;;;6.93;;
2039;SDS011;1025;42.686;23.350;2023-04-24T16:16:48;12.20;;;10.90;;
2039;SDS011;1025;42.686;23.350;2023-04-24T16:19:29;10.70;;;8.53;;
2039;SDS011;1025;42.686;23.350;2023-04-24T16:22:51;12.13;;;8.80;;
2039;SDS011;1025;42.686;23.350;2023-04-24T16:25:55;14.90;;;10.00;;
2039;SDS011;1025;42.686;23.350;2023-04-24T16:29:22;10.20;;;8.13;;
2039;SDS011;1025;42.686;23.350;2023-04-24T16:32:48;7.47;;;6.30;;
2039;SDS011;1025;42.686;23.350;2023-04-24T16:36:14;15.00;;;7.67;;
2039;SDS011;1025;42.686;23.350;2023-04-24T16:39:39;8.60;;;7.43;;
2039;SDS011;1025;42.686;23.350;2023-04-24T16:43:06;8.60;;;7.90;;
2039;SDS011;1025;42.686;23.350;2023-04-24T16:46:33;12.13;;;9.17;;
2039;SDS011;1025;42.686;23.350;2023-04-24T16:49:58;8.87;;;7.97;;
2039;SDS011;1025;42.686;23.350;2023-04-24T16:53:23;8.80;;;8.10;;
2039;SDS011;1025;42.686;23.350;2023-04-24T16:56:49;8.30;;;7.60;;
2039;SDS011;1025;42.686;23.350;2023-04-24T16:59:22;10.73;;;9.73;;
2039;SDS011;1025;42.686;23.350;2023-04-24T17:02:48;8.47;;;7.70;;
2039;SDS011;1025;42.686;23.350;2023-04-24T17:06:13;14.57;;;9.70;;
2039;SDS011;1025;42.686;23.350;2023-04-24T17:09:39;9.70;;;8.80;;
2039;SDS011;1025;42.686;23.350;2023-04-24T17:12:53;11.03;;;9.00;;
2039;SDS011;1025;42.686;23.350;2023-04-24T17:16:18;10.63;;;9.67;;
2039;SDS011;1025;42.686;23.350;2023-04-24T17:19:43;10.40;;;9.50;;
2039;SDS011;1025;42.686;23.350;2023-04-24T17:23:09;18.27;;;11.30;;
2039;SDS011;1025;42.686;23.350;2023-04-24T17:26:34;9.70;;;8.97;;
2039;SDS011;1025;42.686;23.350;2023-04-24T17:29:59;14.70;;;10.23;;
2039;SDS011;1025;42.686;23.350;2023-04-24T17:33:25;12.30;;;11.20;;
2039;SDS011;1025;42.686;23.350;2023-04-24T17:36:52;11.43;;;10.43;;
2039;SDS011;1025;42.686;23.350;2023-04-24T17:40:17;11.20;;;10.20;;
2039;SDS011;1025;42.686;23.350;2023-04-24T17:43:42;12.30;;;11.17;;
2039;SDS011;1025;42.686;23.350;2023-04-24T17:47:06;11.27;;;10.13;;
2039;SDS011;1025;42.686;23.350;2023-04-24T17:50:31;14.27;;;12.97;;
2039;SDS011;1025;42.686;23.350;2023-04-24T17:53:58;13.40;;;12.20;;
2039;SDS011;1025;42.686;23.350;2023-04-24T17:57:23;13.80;;;12.50;;
2039;SDS011;1025;42.686;23.350;2023-04-24T18:00:48;13.23;;;12.23;;
2039;SDS011;1025;42.686;23.350;2023-04-24T18:04:09;12.57;;;11.47;;
2039;SDS011;1025;42.686;23.350;2023-04-24T18:07:35;14.80;;;12.90;;
2039;SDS011;1025;42.686;23.350;2023-04-24T18:11:00;13.10;;;12.00;;
2039;SDS011;1025;42.686;23.350;2023-04-24T18:14:24;13.50;;;10.90;;
2039;SDS011;1025;42.686;23.350;2023-04-24T18:17:47;13.40;;;12.23;;
2039;SDS011;1025;42.686;23.350;2023-04-24T18:21:12;9.40;;;8.57;;
2039;SDS011;1025;42.686;23.350;2023-04-24T18:24:38;12.93;;;9.63;;
2039;SDS011;1025;42.686;23.350;2023-04-24T18:28:04;7.37;;;6.70;;
2039;SDS011;1025;42.686;23.350;2023-04-24T18:31:30;7.60;;;6.80;;
2039;SDS011;1025;42.686;23.350;2023-04-24T18:34:52;5.67;;;5.20;;
2039;SDS011;1025;42.686;23.350;2023-04-24T18:38:18;5.90;;;5.27;;
2039;SDS011;1025;42.686;23.350;2023-04-24T18:41:43;8.03;;;6.53;;
2039;SDS011;1025;42.686;23.350;2023-04-24T18:44:25;5.70;;;5.20;;
2039;SDS011;1025;42.686;23.350;2023-04-24T18:47:41;6.33;;;5.80;;
2039;SDS011;1025;42.686;23.350;2023-04-24T18:51:05;5.70;;;5.20;;
2039;SDS011;1025;42.686;23.350;2023-04-24T18:54:18;4.60;;;4.30;;
2039;SDS011;1025;42.686;23.350;2023-04-24T18:57:07;5.97;;;5.53;;
2039;SDS011;1025;42.686;23.350;2023-04-24T18:59:40;9.00;;;5.47;;
2039;SDS011;1025;42.686;23.350;2023-04-24T19:02:43;7.70;;;7.00;;
2039;SDS011;1025;42.686;23.350;2023-04-24T19:05:20;8.03;;;7.43;;
2039;SDS011;1025;42.686;23.350;2023-04-24T19:07:53;10.23;;;9.30;;
2039;SDS011;1025;42.686;23.350;2023-04-24T19:10:56;10.07;;;9.27;;
2039;SDS011;1025;42.686;23.350;2023-04-24T19:13:23;10.80;;;9.40;;
2039;SDS011;1025;42.686;23.350;2023-04-24T19:15:51;12.93;;;11.10;;
2039;SDS011;1025;42.686;23.350;2023-04-24T19:18:18;12.50;;;11.40;;
2039;SDS011;1025;42.686;23.350;2023-04-24T19:20:45;15.00;;;13.70;;
2039;SDS011;1025;42.686;23.350;2023-04-24T19:23:13;14.90;;;13.70;;
2039;SDS011;1025;42.686;23.350;2023-04-24T19:26:28;12.80;;;11.70;;
2039;SDS011;1025;42.686;23.350;2023-04-24T19:29:53;11.17;;;10.30;;
2039;SDS011;1025;42.686;23.350;2023-04-24T19:32:44;14.33;;;13.03;;
2039;SDS011;1025;42.686;23.350;2023-04-24T19:36:03;13.97;;;12.67;;
2039;SDS011;1025;42.686;23.350;2023-04-24T19:39:28;9.57;;;8.87;;
2039;SDS011;1025;42.686;23.350;2023-04-24T19:41:58;7.10;;;6.60;;
2039;SDS011;1025;42.686;23.350;2023-04-24T19:44:29;5.53;;;5.03;;
2039;SDS011;1025;42.686;23.350;2023-04-24T19:46:56;5.10;;;4.70;;
2039;SDS011;1025;42.686;23.350;2023-04-24T19:50:11;5.70;;;5.20;;
2039;SDS011;1025;42.686;23.350;2023-04-24T19:52:56;5.03;;;4.63;;
2039;SDS011;1025;42.686;23.350;2023-04-24T19:56:01;5.00;;;4.50;;
2039;SDS011;1025;42.686;23.350;2023-04-24T19:59:18;4.40;;;4.00;;
2039;SDS011;1025;42.686;23.350;2023-04-24T20:02:34;4.40;;;2.50;;